Terminal Aerodrome Forecast
Issued by NWS

Home | Current Version | Previous Version | Text Only | Print | Product List | Glossary On
Versions: 1 2 3 4 5 6 7 8 9 10 11 12 13 14 15 16 17 18 19 20 21 22 23 24 25 26 27 28 29 30 31 32 33 34 35 36 37 38 39
000
FTUS45 KSLC 211137
TAFEVW
TAF
KEVW 211137Z 2112/2212 23018G28KT 6SM BR VCSH SCT010 BKN025
      TEMPO 2112/2115 22016KT 2SM -SN BR BKN010
     FM211500 23023G35KT 3SM -SHSN BKN010
     FM211900 25032G44KT 5SM -SHSN SCT010 BKN025
     FM220500 26022G32KT P6SM VCSH SCT010 BKN025=

USA.gov is the U.S. government's official web portal to all federal, state and local government web resources and services.